createdAt,value
2023-03-29T00:03:07.630Z,2.70
2023-03-29T00:08:14.541Z,2.90
2023-03-29T00:13:17.209Z,2.85
2023-03-29T00:18:19.205Z,2.15
2023-03-29T00:23:22.683Z,2.22
2023-03-29T00:28:24.741Z,2.53
2023-03-29T00:33:27.497Z,2.25
2023-03-29T00:38:30.788Z,2.65
2023-03-29T00:44:14.680Z,2.40
2023-03-29T00:49:17.161Z,2.40
2023-03-29T00:54:22.863Z,2.42
2023-03-29T01:05:26.157Z,2.20
2023-03-29T01:10:47.062Z,2.55
2023-03-29T01:15:49.307Z,2.22
2023-03-29T01:21:22.376Z,2.75
2023-03-29T01:26:43.787Z,2.30
2023-03-29T01:31:51.738Z,2.20
2023-03-29T01:37:04.450Z,3.13
2023-03-29T01:42:21.492Z,2.53
2023-03-29T01:47:33.129Z,2.95
2023-03-29T01:52:48.832Z,3.08
2023-03-29T01:57:54.819Z,2.55
2023-03-29T02:03:03.415Z,2.25
2023-03-29T02:08:09.357Z,2.35
2023-03-29T02:13:23.033Z,3.10
2023-03-29T02:18:26.037Z,2.80
2023-03-29T02:23:50.038Z,3.25
2023-03-29T02:28:57.608Z,2.78
2023-03-29T02:34:10.399Z,3.00
2023-03-29T02:39:15.907Z,2.28
2023-03-29T02:44:24.732Z,2.72
2023-03-29T02:49:28.342Z,2.55
2023-03-29T02:54:31.659Z,3.10
2023-03-29T02:59:34.706Z,4.97
2023-03-29T03:04:37.682Z,8.63
2023-03-29T03:09:43.377Z,7.60
2023-03-29T03:14:45.757Z,5.18
2023-03-29T03:19:48.272Z,3.20
2023-03-29T03:24:51.331Z,2.50
2023-03-29T03:29:53.644Z,2.30
2023-03-29T03:35:34.972Z,2.25
2023-03-29T03:40:37.136Z,2.80
2023-03-29T03:45:50.079Z,2.80
2023-03-29T03:50:59.267Z,3.08
2023-03-29T03:56:09.270Z,3.55
2023-03-29T04:01:36.792Z,3.88
2023-03-29T04:11:28.393Z,3.78
2023-03-29T04:16:37.215Z,3.50
2023-03-29T04:22:05.638Z,4.95
2023-03-29T04:27:18.574Z,4.25
2023-03-29T04:32:27.670Z,4.13
2023-03-29T04:37:45.443Z,4.63
2023-03-29T04:48:19.797Z,4.20
2023-03-29T04:53:34.020Z,4.38
2023-03-29T04:58:38.852Z,4.10
2023-03-29T05:03:46.156Z,3.95
2023-03-29T05:08:57.057Z,4.50
2023-03-29T05:14:36.636Z,3.72
2023-03-29T05:19:46.622Z,4.38
2023-03-29T05:25:00.334Z,4.38
2023-03-29T05:30:18.683Z,5.88
2023-03-29T05:35:49.270Z,4.15
2023-03-29T05:40:53.586Z,4.03
2023-03-29T05:46:24.624Z,3.17
2023-03-29T05:51:35.433Z,3.97
2023-03-29T05:56:41.302Z,4.03
2023-03-29T06:01:48.871Z,4.13
2023-03-29T06:06:59.832Z,4.20
2023-03-29T06:12:04.421Z,4.60
2023-03-29T06:17:29.950Z,5.55
2023-03-29T06:22:35.906Z,5.30
2023-03-29T06:27:52.472Z,4.18
2023-03-29T06:38:23.228Z,4.22
2023-03-29T06:43:41.135Z,4.22
2023-03-29T06:49:03.745Z,4.40
2023-03-29T06:54:21.989Z,4.60
2023-03-29T06:59:40.142Z,3.72
2023-03-29T07:05:11.709Z,3.63
2023-03-29T07:10:36.922Z,4.32
2023-03-29T07:16:01.052Z,4.40
2023-03-29T07:21:26.680Z,4.07
2023-03-29T07:26:35.974Z,4.35
2023-03-29T07:31:42.424Z,3.13
2023-03-29T07:37:09.099Z,2.90
2023-03-29T07:42:21.144Z,3.15
2023-03-29T07:47:30.915Z,2.78
2023-03-29T07:57:56.297Z,2.40
2023-03-29T08:03:02.677Z,2.40
2023-03-29T08:13:31.720Z,1.98
2023-03-29T08:19:07.539Z,2.13
2023-03-29T08:24:42.800Z,1.98
2023-03-29T08:29:51.840Z,2.60
2023-03-29T08:34:56.445Z,2.53
2023-03-29T08:40:11.342Z,2.63
2023-03-29T08:46:00.752Z,3.10
2023-03-29T08:51:24.947Z,2.30
2023-03-29T08:56:34.457Z,2.47
2023-03-29T09:02:22.433Z,1.88
2023-03-29T09:07:39.219Z,2.40
2023-03-29T09:13:19.806Z,2.80
2023-03-29T09:18:48.660Z,2.65
2023-03-29T09:24:22.692Z,2.83
2023-03-29T09:29:58.558Z,3.00
2023-03-29T09:35:36.713Z,2.50
2023-03-29T09:40:58.438Z,2.67
2023-03-29T09:46:19.922Z,2.45
2023-03-29T09:51:36.346Z,2.75
2023-03-29T09:56:43.745Z,3.03
2023-03-29T10:02:09.497Z,2.80
2023-03-29T10:07:23.687Z,2.60
2023-03-29T10:12:41.699Z,1.80
2023-03-29T10:17:51.132Z,2.10
2023-03-29T10:23:00.325Z,2.50
2023-03-29T10:28:12.861Z,2.20
2023-03-29T10:33:25.931Z,2.47
2023-03-29T10:38:32.943Z,2.40
2023-03-29T10:43:52.890Z,2.40
2023-03-29T10:49:10.648Z,2.40
2023-03-29T10:54:23.539Z,1.88
2023-03-29T10:59:30.045Z,2.50
2023-03-29T11:05:17.856Z,2.35
2023-03-29T11:10:41.798Z,3.50
2023-03-29T11:16:13.913Z,2.10
2023-03-29T11:32:40.642Z,2.38
2023-03-29T11:38:22.073Z,2.10
2023-03-29T11:44:06.324Z,2.50
2023-03-29T11:49:40.533Z,3.03
2023-03-29T11:55:17.414Z,2.83
2023-03-29T12:00:31.757Z,2.70
2023-03-29T12:17:21.925Z,2.30
2023-03-29T12:22:36.141Z,2.85
2023-03-29T12:28:02.106Z,3.28
2023-03-29T12:33:20.174Z,2.58
2023-03-29T12:38:32.713Z,3.22
2023-03-29T12:43:53.599Z,2.33
2023-03-29T12:48:58.374Z,3.33
2023-03-29T12:54:10.279Z,2.97
2023-03-29T12:59:27.952Z,2.80
2023-03-29T13:04:51.568Z,2.13
2023-03-29T13:10:29.541Z,2.44
2023-03-29T13:15:35.936Z,2.78
2023-03-29T13:20:46.195Z,2.42
2023-03-29T13:25:48.455Z,2.47
2023-03-29T13:30:59.625Z,2.88
2023-03-29T13:36:37.671Z,2.60
2023-03-29T13:41:54.650Z,2.83
2023-03-29T13:47:39.447Z,2.90
2023-03-29T13:53:00.886Z,2.17
2023-03-29T13:58:32.076Z,2.65
2023-03-29T14:09:08.724Z,2.90
2023-03-29T14:14:11.484Z,2.50
2023-03-29T14:19:23.897Z,2.15
2023-03-29T14:24:28.752Z,2.92
2023-03-29T14:29:35.157Z,2.70
2023-03-29T14:34:45.164Z,2.53
2023-03-29T14:39:49.494Z,2.63
2023-03-29T14:44:57.164Z,2.35
2023-03-29T14:50:01.757Z,2.20
2023-03-29T14:55:04.985Z,2.78
2023-03-29T15:00:19.952Z,2.47
2023-03-29T15:05:44.218Z,2.90
2023-03-29T15:10:56.210Z,2.55
2023-03-29T15:16:07.519Z,2.63
2023-03-29T15:21:14.888Z,2.20
2023-03-29T15:26:37.767Z,2.00
2023-03-29T15:31:41.962Z,2.58
2023-03-29T15:36:50.534Z,2.63
2023-03-29T15:41:59.293Z,3.15
2023-03-29T15:52:25.226Z,2.60
2023-03-29T15:57:34.543Z,3.17
2023-03-29T16:02:45.976Z,2.70
2023-03-29T16:07:50.248Z,2.90
2023-03-29T16:13:02.198Z,2.80
2023-03-29T16:18:07.541Z,3.20
2023-03-29T16:23:22.267Z,3.28
2023-03-29T16:28:30.418Z,3.00
2023-03-29T16:33:33.756Z,3.42
2023-03-29T16:38:35.981Z,2.90
2023-03-29T16:43:38.753Z,2.83
2023-03-29T16:48:40.952Z,3.00
2023-03-29T16:53:43.493Z,3.30
2023-03-29T16:58:45.880Z,3.67
2023-03-29T17:03:51.175Z,3.75
2023-03-29T17:08:53.847Z,3.50
2023-03-29T17:13:56.308Z,4.30
2023-03-29T17:19:01.380Z,3.70
2023-03-29T17:24:06.447Z,3.75
2023-03-29T17:29:08.796Z,4.32
2023-03-29T17:39:18.815Z,2.85
2023-03-29T17:44:21.107Z,3.42
2023-03-29T17:49:23.268Z,3.40
2023-03-29T17:59:37.466Z,3.10
2023-03-29T18:04:46.540Z,3.22
2023-03-29T18:09:57.936Z,2.83
2023-03-29T18:15:20.167Z,2.20
2023-03-29T18:20:26.223Z,2.30
2023-03-29T18:25:29.549Z,3.47
2023-03-29T18:30:31.744Z,2.80
2023-03-29T18:40:39.173Z,3.08
2023-03-29T18:45:43.061Z,2.80
2023-03-29T18:50:46.596Z,2.80
2023-03-29T18:55:53.004Z,2.85
2023-03-29T19:01:09.688Z,2.53
2023-03-29T19:06:15.758Z,3.08
2023-03-29T19:11:21.437Z,3.15
2023-03-29T19:16:23.761Z,2.55
2023-03-29T19:21:27.888Z,3.28
2023-03-29T19:26:30.704Z,2.55
2023-03-29T19:31:33.575Z,3.10
2023-03-29T19:36:35.934Z,3.67
2023-03-29T19:41:39.996Z,2.50
2023-03-29T19:46:44.283Z,2.58
2023-03-29T19:51:48.009Z,2.75
2023-03-29T19:56:52.731Z,2.92
2023-03-29T20:02:02.775Z,2.70
2023-03-29T20:07:05.354Z,2.75
2023-03-29T20:12:07.531Z,2.55
2023-03-29T20:17:11.830Z,2.80
2023-03-29T20:22:21.813Z,2.90
2023-03-29T20:27:25.616Z,2.67
2023-03-29T20:32:28.150Z,2.97
2023-03-29T20:37:30.375Z,2.72
2023-03-29T20:47:42.584Z,2.35
2023-03-29T20:52:45.195Z,2.05
2023-03-29T20:57:54.316Z,2.47
2023-03-29T21:03:10.128Z,2.53
2023-03-29T21:08:19.001Z,2.60
2023-03-29T21:13:23.014Z,2.45
2023-03-29T21:18:28.635Z,2.08
2023-03-29T21:23:55.498Z,3.35
2023-03-29T21:29:02.685Z,2.22
2023-03-29T21:34:25.632Z,2.58
2023-03-29T21:39:32.740Z,2.50
2023-03-29T21:49:59.085Z,2.08
2023-03-29T21:55:12.237Z,2.13
2023-03-29T22:00:29.867Z,1.77
2023-03-29T22:05:36.764Z,2.20
2023-03-29T22:10:41.689Z,1.80
2023-03-29T22:21:16.440Z,2.05
2023-03-29T22:26:32.011Z,1.88
2023-03-29T22:37:07.812Z,2.33
2023-03-29T22:42:22.788Z,1.80
2023-03-29T22:47:37.110Z,1.73
2023-03-29T22:52:43.366Z,2.05
2023-03-29T22:57:49.443Z,2.30
2023-03-29T23:03:02.991Z,2.22
2023-03-29T23:08:16.106Z,1.90
2023-03-29T23:13:37.745Z,2.40
2023-03-29T23:18:42.010Z,1.60
2023-03-29T23:23:51.460Z,2.03
2023-03-29T23:29:03.326Z,2.08
2023-03-29T23:34:08.279Z,1.58
2023-03-29T23:39:22.498Z,1.70
2023-03-29T23:44:37.410Z,1.75
2023-03-29T23:55:07.365Z,1.70
